Main page
METAR-TAF:

METAR-TAF

Airports :

F 7 Såtenäs

Såtenäs, Sweden

latitude: 58-26N, longitude: 012-42E, elevation: 54 m

Current weather observation

The report was made 35 minutes ago, at 01:20 UTC
Wind 18 kt from the Southwest
Temperature 5°C
Humidity 100%
Pressure 978 hPa
Visibility 10 km or more
light rain showers

METAR: ESIB 090120Z AUTO 22018KT 9999 -SHRA FEW013/// SCT020/// BKN032/// BKN040/// 05/05 Q0978

Time: 02:55 (01:55 UTC)


TAF: missing

Weather observations and forecasts of more than 4000 airports (METAR and TAF reports).

The available stations are represented by yellow and red dots on the map.

Hover mouse over dot to see the name of the station.

Then click to see weather observations and forecasts.

To change the map : click on the green buttons with a black cross to zoom in, on the green button with a dash to zoom out, or on the green arrows for adjacent maps.


METAR-TAF: